createdAt,value
2023-03-07T00:02:06.817Z,98843.41
2023-03-07T00:04:34.734Z,98852.38
2023-03-07T00:07:02.754Z,98847.44
2023-03-07T00:09:31.034Z,98845.94
2023-03-07T00:12:00.734Z,98842.72
2023-03-07T00:14:28.869Z,98837.88
2023-03-07T00:16:56.917Z,98823.25
2023-03-07T00:19:25.103Z,98823.13
2023-03-07T00:21:52.930Z,98825.59
2023-03-07T00:24:21.191Z,98821.53
2023-03-07T00:26:49.253Z,98816.88
2023-03-07T00:29:19.566Z,98812.03
2023-03-07T00:31:47.819Z,98809.28
2023-03-07T00:34:16.193Z,98809.88
2023-03-07T00:36:44.039Z,98807.16
2023-03-07T00:39:12.208Z,98801.53
2023-03-07T00:41:40.488Z,98797.72
2023-03-07T00:44:08.661Z,98792.91
2023-03-07T00:46:38.046Z,98802.03
2023-03-07T00:49:06.009Z,98796.09
2023-03-07T00:51:33.712Z,98787.41
2023-03-07T00:54:01.825Z,98788.56
2023-03-07T00:56:30.355Z,98786.66
2023-03-07T00:58:59.013Z,98782.06
2023-03-07T01:01:28.886Z,98782.38
2023-03-07T01:03:58.135Z,98778.94
2023-03-07T01:06:27.026Z,98768.16
2023-03-07T01:08:56.696Z,98765.09
2023-03-07T01:11:24.732Z,98766.69
2023-03-07T01:13:52.912Z,98761.38
2023-03-07T01:16:21.834Z,98749.16
2023-03-07T01:18:50.681Z,98753.81
2023-03-07T01:21:22.100Z,98747.00
2023-03-07T01:23:50.908Z,98750.06
2023-03-07T01:26:21.014Z,98747.09
2023-03-07T01:28:49.043Z,98744.94
2023-03-07T01:31:17.094Z,98737.91
2023-03-07T01:33:45.633Z,98737.75
2023-03-07T01:36:22.559Z,98734.84
2023-03-07T01:38:51.231Z,98736.06
2023-03-07T01:41:19.439Z,98729.78
2023-03-07T01:43:50.140Z,98722.84
2023-03-07T01:46:42.148Z,98720.94
2023-03-07T01:49:13.555Z,98719.66
2023-03-07T01:51:45.116Z,98725.31
2023-03-07T01:54:17.720Z,98715.19
2023-03-07T01:56:47.703Z,98715.59
2023-03-07T01:59:20.092Z,98713.22
2023-03-07T02:01:47.951Z,98706.78
2023-03-07T02:04:18.257Z,98709.34
2023-03-07T02:06:47.761Z,98706.03
2023-03-07T02:09:18.256Z,98699.81
2023-03-07T02:11:47.694Z,98690.56
2023-03-07T02:14:15.530Z,98695.34
2023-03-07T02:16:46.141Z,98692.22
2023-03-07T02:19:33.717Z,98682.31
2023-03-07T02:22:09.053Z,98677.00
2023-03-07T02:24:41.713Z,98679.03
2023-03-07T02:27:12.059Z,98675.47
2023-03-07T02:29:41.111Z,98670.44
2023-03-07T02:32:09.542Z,98661.44
2023-03-07T02:34:37.586Z,98666.66
2023-03-07T02:37:15.438Z,98651.75
2023-03-07T02:39:45.648Z,98646.78
2023-03-07T02:42:18.735Z,98649.94
2023-03-07T02:44:56.977Z,98647.88
2023-03-07T02:47:25.472Z,98646.97
2023-03-07T02:49:53.663Z,98637.09
2023-03-07T02:52:21.790Z,98642.25
2023-03-07T02:54:49.908Z,98634.81
2023-03-07T02:57:19.991Z,98631.59
2023-03-07T02:59:47.799Z,98628.38
2023-03-07T03:02:15.582Z,98626.69
2023-03-07T03:04:43.622Z,98620.72
2023-03-07T03:07:11.535Z,98630.69
2023-03-07T03:09:39.373Z,98623.91
2023-03-07T03:12:07.706Z,98622.09
2023-03-07T03:14:38.089Z,98625.28
2023-03-07T03:17:06.350Z,98630.69
2023-03-07T03:19:34.142Z,98628.13
2023-03-07T03:22:01.890Z,98625.91
2023-03-07T03:24:34.104Z,98620.59
2023-03-07T03:27:02.055Z,98608.16
2023-03-07T03:29:29.946Z,98618.88
2023-03-07T03:32:04.413Z,98616.31
2023-03-07T03:34:35.356Z,98623.56
2023-03-07T03:37:03.905Z,98616.41
2023-03-07T03:39:32.272Z,98612.91
2023-03-07T03:42:01.098Z,98619.44
2023-03-07T03:44:29.789Z,98609.00
2023-03-07T03:46:58.374Z,98602.09
2023-03-07T03:49:27.987Z,98615.31
2023-03-07T03:51:56.439Z,98604.44
2023-03-07T03:54:24.499Z,98604.31
2023-03-07T03:56:54.780Z,98603.75
2023-03-07T03:59:23.396Z,98608.34
2023-03-07T04:01:55.119Z,98609.81
2023-03-07T04:04:23.703Z,98598.78
2023-03-07T04:06:53.634Z,98599.72
2023-03-07T04:09:21.806Z,98602.03
2023-03-07T04:11:51.474Z,98598.91
2023-03-07T04:14:19.575Z,98600.31
2023-03-07T04:16:48.380Z,98601.91
2023-03-07T04:19:16.833Z,98594.72
2023-03-07T04:21:44.638Z,98596.84
2023-03-07T04:24:17.627Z,98585.94
2023-03-07T04:26:45.840Z,98585.13
2023-03-07T04:29:14.240Z,98589.25
2023-03-07T04:31:55.444Z,98571.94
2023-03-07T04:34:23.695Z,98583.94
2023-03-07T04:36:51.647Z,98579.72
2023-03-07T04:39:21.092Z,98576.03
2023-03-07T04:41:48.933Z,98569.25
2023-03-07T04:44:21.296Z,98563.03
2023-03-07T04:46:49.892Z,98573.13
2023-03-07T04:49:18.203Z,98565.72
2023-03-07T04:51:45.979Z,98581.66
2023-03-07T04:54:16.624Z,98569.16
2023-03-07T04:56:50.504Z,98559.56
2023-03-07T04:59:20.343Z,98563.47
2023-03-07T05:01:49.421Z,98558.66
2023-03-07T05:04:18.116Z,98557.91
2023-03-07T05:06:46.020Z,98552.56
2023-03-07T05:09:14.522Z,98550.84
2023-03-07T05:11:42.880Z,98541.47
2023-03-07T05:14:12.123Z,98548.19
2023-03-07T05:16:39.701Z,98550.94
2023-03-07T05:19:08.017Z,98545.81
2023-03-07T05:21:36.217Z,98542.50
2023-03-07T05:24:04.736Z,98541.47
2023-03-07T05:26:34.272Z,98546.34
2023-03-07T05:29:02.731Z,98531.91
2023-03-07T05:31:32.215Z,98538.78
2023-03-07T05:34:00.540Z,98528.81
2023-03-07T05:36:28.570Z,98535.78
2023-03-07T05:38:57.647Z,98522.88
2023-03-07T05:41:25.887Z,98528.00
2023-03-07T05:43:54.906Z,98533.31
2023-03-07T05:46:23.779Z,98519.88
2023-03-07T05:48:53.310Z,98519.50
2023-03-07T05:51:21.079Z,98524.72
2023-03-07T05:53:49.739Z,98527.91
2023-03-07T05:56:18.424Z,98521.69
2023-03-07T05:58:46.054Z,98526.56
2023-03-07T06:01:14.385Z,98519.88
2023-03-07T06:03:43.925Z,98518.75
2023-03-07T06:06:13.391Z,98523.50
2023-03-07T06:08:42.452Z,98523.44
2023-03-07T06:11:11.942Z,98518.56
2023-03-07T06:13:40.475Z,98520.38
2023-03-07T06:16:08.304Z,98527.16
2023-03-07T06:18:38.989Z,98519.56
2023-03-07T06:21:10.413Z,98519.00
2023-03-07T06:23:45.333Z,98522.94
2023-03-07T06:26:17.832Z,98520.44
2023-03-07T06:28:49.132Z,98531.34
2023-03-07T06:31:18.803Z,98533.00
2023-03-07T06:33:47.761Z,98534.16
2023-03-07T06:36:18.383Z,98530.78
2023-03-07T06:38:52.097Z,98539.59
2023-03-07T06:41:20.163Z,98536.09
2023-03-07T06:43:51.637Z,98548.00
2023-03-07T06:46:21.265Z,98536.59
2023-03-07T06:48:52.161Z,98549.09
2023-03-07T06:51:22.019Z,98541.34
2023-03-07T06:53:50.262Z,98554.16
2023-03-07T06:56:20.209Z,98545.97
2023-03-07T06:58:48.157Z,98553.16
2023-03-07T07:01:18.339Z,98549.31
2023-03-07T07:03:48.364Z,98554.63
2023-03-07T07:06:17.917Z,98557.13
2023-03-07T07:08:46.014Z,98556.06
2023-03-07T07:11:14.373Z,98558.88
2023-03-07T07:13:43.573Z,98556.94
2023-03-07T07:16:16.270Z,98552.41
2023-03-07T07:18:46.061Z,98557.25
2023-03-07T07:21:14.079Z,98548.94
2023-03-07T07:23:42.070Z,98555.22
2023-03-07T07:26:10.638Z,98551.44
2023-03-07T07:28:38.655Z,98549.50
2023-03-07T07:31:10.137Z,98552.06
2023-03-07T07:33:38.718Z,98554.72
2023-03-07T07:36:08.686Z,98552.75
2023-03-07T07:38:37.438Z,98553.25
2023-03-07T07:41:05.667Z,98553.41
2023-03-07T07:43:34.485Z,98548.19
2023-03-07T07:46:39.258Z,98546.56
2023-03-07T07:49:08.965Z,98546.81
2023-03-07T07:51:37.378Z,98544.19
2023-03-07T07:54:05.395Z,98553.91
2023-03-07T07:56:33.188Z,98550.16
2023-03-07T07:59:01.205Z,98552.81
2023-03-07T08:01:31.981Z,98552.41
2023-03-07T08:04:01.274Z,98550.72
2023-03-07T08:06:29.122Z,98552.03
2023-03-07T08:08:57.154Z,98549.63
2023-03-07T08:11:26.551Z,98542.69
2023-03-07T08:13:54.387Z,98546.41
2023-03-07T08:16:24.166Z,98537.75
2023-03-07T08:19:00.968Z,98528.75
2023-03-07T08:21:30.288Z,98531.31
2023-03-07T08:23:58.142Z,98540.38
2023-03-07T08:26:26.828Z,98533.88
2023-03-07T08:28:54.535Z,98535.09
2023-03-07T08:31:24.559Z,98534.13
2023-03-07T08:33:52.643Z,98512.19
2023-03-07T08:36:20.686Z,98528.09
2023-03-07T08:38:52.204Z,98531.72
2023-03-07T08:41:20.821Z,98536.22
2023-03-07T08:43:48.567Z,98524.41
2023-03-07T08:46:16.627Z,98527.06
2023-03-07T08:48:44.507Z,98531.50
2023-03-07T08:51:13.368Z,98533.09
2023-03-07T08:53:42.992Z,98521.53
2023-03-07T08:56:13.189Z,98531.59
2023-03-07T08:58:41.460Z,98520.88
2023-03-07T09:01:10.136Z,98522.59
2023-03-07T09:03:38.204Z,98525.00
2023-03-07T09:06:06.703Z,98526.84
2023-03-07T09:08:34.828Z,98512.94
2023-03-07T09:11:05.554Z,98514.81
2023-03-07T09:13:42.948Z,98508.63
2023-03-07T09:16:14.710Z,98511.03
2023-03-07T09:18:43.047Z,98519.75
2023-03-07T09:21:11.047Z,98498.13
2023-03-07T09:23:38.807Z,98514.06
2023-03-07T09:26:07.655Z,98493.59
2023-03-07T09:28:37.749Z,98488.69
2023-03-07T09:31:08.463Z,98495.81
2023-03-07T09:33:36.594Z,98475.59
2023-03-07T09:36:06.463Z,98494.06
2023-03-07T09:38:34.613Z,98492.91
2023-03-07T09:41:04.921Z,98497.94
2023-03-07T09:43:39.317Z,98489.94
2023-03-07T09:46:33.231Z,98488.47
2023-03-07T09:49:08.262Z,98492.78
2023-03-07T09:51:38.408Z,98477.44
2023-03-07T09:54:09.901Z,98483.28
2023-03-07T09:56:40.468Z,98477.72
2023-03-07T09:59:22.357Z,98475.06
2023-03-07T10:01:54.099Z,98471.34
2023-03-07T10:04:25.094Z,98472.22
2023-03-07T10:06:57.412Z,98472.88
2023-03-07T10:09:26.921Z,98485.84
2023-03-07T10:12:09.479Z,98479.06
2023-03-07T10:14:46.319Z,98486.03
2023-03-07T10:17:21.473Z,98481.44
2023-03-07T10:19:51.542Z,98475.16
2023-03-07T10:22:21.289Z,98477.38
2023-03-07T10:25:07.691Z,98464.78
2023-03-07T10:27:35.664Z,98465.06
2023-03-07T10:30:10.219Z,98448.69
2023-03-07T10:32:41.767Z,98467.78
2023-03-07T10:35:16.453Z,98454.56
2023-03-07T10:37:50.384Z,98450.94
2023-03-07T10:40:23.153Z,98463.72
2023-03-07T10:42:51.461Z,98448.06
2023-03-07T10:45:19.903Z,98441.34
2023-03-07T10:47:49.986Z,98443.91
2023-03-07T10:50:25.590Z,98444.91
2023-03-07T10:52:55.493Z,98444.00
2023-03-07T10:55:34.912Z,98437.91
2023-03-07T10:58:19.688Z,98438.28
2023-03-07T11:00:49.063Z,98435.00
2023-03-07T11:03:26.781Z,98434.19
2023-03-07T11:05:54.732Z,98436.47
2023-03-07T11:08:27.382Z,98435.16
2023-03-07T11:10:55.904Z,98427.19
2023-03-07T11:13:24.698Z,98404.34
2023-03-07T11:16:02.884Z,98415.38
2023-03-07T11:18:42.688Z,98409.94
2023-03-07T11:21:27.425Z,98398.19
2023-03-07T11:24:00.296Z,98405.16
2023-03-07T11:26:31.540Z,98400.97
2023-03-07T11:29:06.506Z,98387.25
2023-03-07T11:31:38.012Z,98394.75
2023-03-07T11:34:16.275Z,98357.44
2023-03-07T11:36:48.937Z,98391.84
2023-03-07T11:39:23.165Z,98395.09
2023-03-07T11:41:54.845Z,98394.84
2023-03-07T11:44:32.573Z,98399.78
2023-03-07T11:47:16.544Z,98390.16
2023-03-07T11:49:47.484Z,98390.59
2023-03-07T11:52:24.628Z,98383.94
2023-03-07T11:54:59.337Z,98385.13
2023-03-07T11:57:34.895Z,98368.16
2023-03-07T12:00:18.176Z,98380.03
2023-03-07T12:03:10.400Z,98373.91
2023-03-07T12:05:45.767Z,98376.50
2023-03-07T12:08:23.527Z,98365.84
2023-03-07T12:10:59.310Z,98363.25
2023-03-07T12:13:32.104Z,98364.72
2023-03-07T12:16:07.802Z,98357.97
2023-03-07T12:18:42.639Z,98364.06
2023-03-07T12:21:25.921Z,98353.56
2023-03-07T12:23:58.015Z,98361.19
2023-03-07T12:26:28.379Z,98364.63
2023-03-07T12:29:01.313Z,98365.63
2023-03-07T12:31:32.470Z,98356.41
2023-03-07T12:34:05.358Z,98351.91
2023-03-07T12:36:38.021Z,98353.16
2023-03-07T12:39:15.626Z,98355.88
2023-03-07T12:41:49.196Z,98343.69
2023-03-07T12:44:23.795Z,98343.41
2023-03-07T12:46:56.268Z,98340.31
2023-03-07T12:49:37.908Z,98339.03
2023-03-07T12:52:16.304Z,98331.50
2023-03-07T12:54:51.128Z,98329.03
2023-03-07T12:57:22.096Z,98330.63
2023-03-07T12:59:51.811Z,98341.31
2023-03-07T13:02:23.212Z,98333.72
2023-03-07T13:04:51.463Z,98322.94
2023-03-07T13:07:22.407Z,98318.72
2023-03-07T13:09:53.356Z,98319.81
2023-03-07T13:12:31.994Z,98313.16
2023-03-07T13:15:00.954Z,98311.00
2023-03-07T13:17:48.225Z,98307.91
2023-03-07T13:20:36.199Z,98310.81
2023-03-07T13:23:15.144Z,98303.22
2023-03-07T13:25:49.103Z,98306.44
2023-03-07T13:28:36.455Z,98308.22
2023-03-07T13:31:29.624Z,98312.94
2023-03-07T13:33:58.138Z,98308.66
2023-03-07T13:36:34.125Z,98312.91
2023-03-07T13:39:02.132Z,98312.47
2023-03-07T13:41:48.178Z,98308.84
2023-03-07T13:44:30.263Z,98304.66
2023-03-07T13:47:05.024Z,98312.69
2023-03-07T13:49:43.323Z,98312.56
2023-03-07T13:52:22.953Z,98297.88
2023-03-07T13:54:51.773Z,98309.00
2023-03-07T13:57:23.379Z,98310.03
2023-03-07T13:59:51.646Z,98314.44
2023-03-07T14:02:21.435Z,98319.81
2023-03-07T14:04:54.274Z,98320.94
2023-03-07T14:07:24.994Z,98329.72
2023-03-07T14:09:55.478Z,98321.34
2023-03-07T14:12:33.510Z,98317.13
2023-03-07T14:15:06.968Z,98319.78
2023-03-07T14:17:43.022Z,98333.88
2023-03-07T14:20:17.756Z,98329.50
2023-03-07T14:22:53.659Z,98330.41
2023-03-07T14:25:25.008Z,98322.59
2023-03-07T14:27:58.411Z,98328.13
2023-03-07T14:30:27.712Z,98325.94
2023-03-07T14:32:55.742Z,98321.22
2023-03-07T14:35:40.452Z,98326.50
2023-03-07T14:38:09.730Z,98327.41
2023-03-07T14:40:43.592Z,98322.09
2023-03-07T14:43:22.555Z,98324.09
2023-03-07T14:45:55.024Z,98324.88
2023-03-07T14:48:48.508Z,98331.69
2023-03-07T14:51:18.827Z,98332.63
2023-03-07T14:53:46.845Z,98344.59
2023-03-07T14:56:20.782Z,98350.38
2023-03-07T14:58:52.410Z,98352.06
2023-03-07T15:01:20.908Z,98353.16
2023-03-07T15:03:49.962Z,98346.47
2023-03-07T15:06:20.035Z,98335.06
2023-03-07T15:08:49.497Z,98339.81
2023-03-07T15:11:29.287Z,98339.41
2023-03-07T15:14:00.297Z,98337.25
2023-03-07T15:16:30.797Z,98338.88
2023-03-07T15:18:59.910Z,98339.59
2023-03-07T15:21:31.416Z,98331.69
2023-03-07T15:24:00.051Z,98317.13
2023-03-07T15:26:28.866Z,98324.00
2023-03-07T15:29:02.340Z,98329.56
2023-03-07T15:31:32.059Z,98323.59
2023-03-07T15:34:13.644Z,98323.41
2023-03-07T15:36:41.946Z,98305.13
2023-03-07T15:39:34.877Z,98298.81
2023-03-07T15:42:05.272Z,98321.47
2023-03-07T15:44:34.839Z,98312.25
2023-03-07T15:47:05.659Z,98317.72
2023-03-07T15:49:37.797Z,98311.13
2023-03-07T15:52:07.344Z,98305.28
2023-03-07T15:54:38.741Z,98311.28
2023-03-07T15:57:10.472Z,98307.81
2023-03-07T15:59:43.035Z,98319.09
2023-03-07T16:02:42.134Z,98296.28
2023-03-07T16:05:29.915Z,98301.59
2023-03-07T16:07:58.790Z,98316.53
2023-03-07T16:10:29.793Z,98324.44
2023-03-07T16:12:58.228Z,98319.50
2023-03-07T16:15:27.636Z,98324.31
2023-03-07T16:17:58.894Z,98317.78
2023-03-07T16:20:27.585Z,98318.16
2023-03-07T16:22:55.814Z,98334.13
2023-03-07T16:25:25.362Z,98326.88
2023-03-07T16:27:54.825Z,98332.84
2023-03-07T16:30:24.119Z,98330.84
2023-03-07T16:32:53.823Z,98335.47
2023-03-07T16:35:24.310Z,98334.63
2023-03-07T16:37:52.727Z,98340.84
2023-03-07T16:40:23.462Z,98335.00
2023-03-07T16:42:51.732Z,98332.44
2023-03-07T16:45:22.598Z,98331.16
2023-03-07T16:47:54.119Z,98331.16
2023-03-07T16:50:23.699Z,98327.38
2023-03-07T16:52:52.236Z,98338.41
2023-03-07T16:55:20.672Z,98328.56
2023-03-07T16:57:49.789Z,98342.03
2023-03-07T17:00:19.491Z,98338.03
2023-03-07T17:02:48.933Z,98335.34
2023-03-07T17:05:20.463Z,98356.44
2023-03-07T17:07:48.716Z,98356.44
2023-03-07T17:10:17.807Z,98349.06
2023-03-07T17:12:46.699Z,98361.00
2023-03-07T17:15:16.505Z,98370.19
2023-03-07T17:17:45.298Z,98369.00
2023-03-07T17:20:17.424Z,98373.09
2023-03-07T17:22:47.995Z,98370.75
2023-03-07T17:25:16.350Z,98375.66
2023-03-07T17:27:45.858Z,98378.00
2023-03-07T17:30:17.775Z,98379.66
2023-03-07T17:32:46.185Z,98385.63
2023-03-07T17:35:15.111Z,98385.63
2023-03-07T17:37:43.372Z,98380.72
2023-03-07T17:40:14.066Z,98384.81
2023-03-07T17:42:42.725Z,98378.94
2023-03-07T17:45:12.346Z,98378.47
2023-03-07T17:47:41.032Z,98376.13
2023-03-07T17:50:10.320Z,98378.00
2023-03-07T17:52:40.177Z,98377.19
2023-03-07T17:55:11.956Z,98374.75
2023-03-07T17:57:42.084Z,98378.47
2023-03-07T18:00:13.234Z,98381.16
2023-03-07T18:02:43.786Z,98381.03
2023-03-07T18:05:13.179Z,98368.50
2023-03-07T18:07:41.721Z,98385.28
2023-03-07T18:10:13.628Z,98385.06
2023-03-07T18:12:43.271Z,98391.13
2023-03-07T18:15:13.304Z,98385.50
2023-03-07T18:17:48.298Z,98387.50
2023-03-07T18:20:17.892Z,98390.44
2023-03-07T18:22:46.040Z,98398.66
2023-03-07T18:25:15.716Z,98392.41
2023-03-07T18:27:46.164Z,98385.97
2023-03-07T18:30:15.156Z,98386.44
2023-03-07T18:32:43.261Z,98385.75
2023-03-07T18:35:11.966Z,98391.16
2023-03-07T18:37:40.373Z,98386.91
2023-03-07T18:40:09.688Z,98389.25
2023-03-07T18:42:39.272Z,98384.09
2023-03-07T18:45:09.858Z,98372.97
2023-03-07T18:47:38.630Z,98388.56
2023-03-07T18:50:14.767Z,98379.19
2023-03-07T18:52:48.640Z,98391.25
2023-03-07T18:55:16.990Z,98398.78
2023-03-07T18:57:45.195Z,98395.00
2023-03-07T19:00:15.236Z,98399.09
2023-03-07T19:02:43.188Z,98403.13
2023-03-07T19:05:11.351Z,98407.91
2023-03-07T19:07:39.399Z,98403.94
2023-03-07T19:10:08.152Z,98414.34
2023-03-07T19:15:41.055Z,98403.22
2023-03-07T19:18:09.270Z,98384.34
2023-03-07T19:20:40.336Z,98412.97
2023-03-07T19:23:09.616Z,98403.94
2023-03-07T19:25:37.486Z,98389.16
2023-03-07T19:28:05.278Z,98408.97
2023-03-07T19:30:35.662Z,98398.44
2023-03-07T19:33:05.343Z,98394.66
2023-03-07T19:35:33.539Z,98401.56
2023-03-07T19:38:01.351Z,98404.03
2023-03-07T19:40:29.296Z,98403.09
2023-03-07T19:42:57.101Z,98405.91
2023-03-07T19:45:25.144Z,98416.91
2023-03-07T19:47:58.451Z,98415.88
2023-03-07T19:50:37.105Z,98433.72
2023-03-07T19:53:05.486Z,98423.03
2023-03-07T19:55:33.696Z,98426.31
2023-03-07T19:58:01.542Z,98425.38
2023-03-07T20:00:29.363Z,98433.34
2023-03-07T20:02:57.292Z,98424.88
2023-03-07T20:05:25.026Z,98436.38
2023-03-07T20:07:54.769Z,98423.38
2023-03-07T20:10:22.962Z,98420.91
2023-03-07T20:12:53.224Z,98436.38
2023-03-07T20:18:07.353Z,98421.63
2023-03-07T20:20:35.545Z,98439.44
2023-03-07T20:23:05.350Z,98436.25
2023-03-07T20:25:33.032Z,98442.94
2023-03-07T20:28:00.942Z,98435.34
2023-03-07T20:30:28.656Z,98455.03
2023-03-07T20:32:57.346Z,98434.03
2023-03-07T20:35:25.680Z,98449.06
2023-03-07T20:37:53.479Z,98452.00
2023-03-07T20:40:23.417Z,98457.25
2023-03-07T20:42:51.941Z,98459.38
2023-03-07T20:45:20.955Z,98462.88
2023-03-07T20:47:49.333Z,98467.22
2023-03-07T20:50:17.266Z,98468.03
2023-03-07T20:52:45.319Z,98477.41
2023-03-07T20:55:13.179Z,98478.34
2023-03-07T20:57:42.416Z,98488.56
2023-03-07T21:00:11.172Z,98487.59
2023-03-07T21:02:39.844Z,98491.75
2023-03-07T21:05:07.768Z,98490.69
2023-03-07T21:07:35.653Z,98488.94
2023-03-07T21:10:04.117Z,98488.69
2023-03-07T21:12:32.175Z,98488.34
2023-03-07T21:15:01.498Z,98494.00
2023-03-07T21:17:48.410Z,98490.00
2023-03-07T21:20:16.721Z,98497.22
2023-03-07T21:22:45.491Z,98494.88
2023-03-07T21:25:13.590Z,98502.47
2023-03-07T21:27:41.300Z,98499.34
2023-03-07T21:30:11.304Z,98503.44
2023-03-07T21:32:39.731Z,98509.34
2023-03-07T21:35:08.477Z,98515.19
2023-03-07T21:37:37.710Z,98512.94
2023-03-07T21:40:06.281Z,98518.44
2023-03-07T21:42:34.328Z,98522.47
2023-03-07T21:45:01.965Z,98524.53
2023-03-07T21:47:31.866Z,98527.03
2023-03-07T21:49:59.574Z,98534.34
2023-03-07T21:52:30.118Z,98528.63
2023-03-07T21:54:58.489Z,98528.84
2023-03-07T21:57:26.441Z,98528.84
2023-03-07T21:59:54.146Z,98539.56
2023-03-07T22:02:23.133Z,98544.25
2023-03-07T22:04:52.204Z,98544.75
2023-03-07T22:07:20.156Z,98546.66
2023-03-07T22:09:48.025Z,98548.34
2023-03-07T22:12:15.798Z,98563.78
2023-03-07T22:14:43.684Z,98581.00
2023-03-07T22:17:11.426Z,98571.06
2023-03-07T22:19:39.414Z,98570.72
2023-03-07T22:22:09.325Z,98566.66
2023-03-07T22:24:37.390Z,98569.25
2023-03-07T22:27:07.251Z,98565.53
2023-03-07T22:29:35.048Z,98558.03
2023-03-07T22:32:03.052Z,98568.84
2023-03-07T22:34:30.955Z,98577.19
2023-03-07T22:36:58.756Z,98582.50
2023-03-07T22:39:28.262Z,98581.06
2023-03-07T22:41:56.090Z,98591.50
2023-03-07T22:44:24.138Z,98583.25
2023-03-07T22:46:52.441Z,98583.44
2023-03-07T22:49:20.129Z,98573.53
2023-03-07T22:51:48.027Z,98579.13
2023-03-07T22:54:15.735Z,98574.81
2023-03-07T22:56:44.937Z,98564.13
2023-03-07T22:59:13.798Z,98569.97
2023-03-07T23:01:41.685Z,98571.41
2023-03-07T23:04:09.917Z,98575.94
2023-03-07T23:06:38.400Z,98575.38
2023-03-07T23:09:06.807Z,98574.28
2023-03-07T23:11:35.849Z,98568.50
2023-03-07T23:14:05.559Z,98577.09
2023-03-07T23:16:34.056Z,98576.19
2023-03-07T23:19:02.329Z,98583.06
2023-03-07T23:21:31.929Z,98580.78
2023-03-07T23:24:00.987Z,98581.84
2023-03-07T23:26:29.969Z,98574.34
2023-03-07T23:29:00.861Z,98583.41
2023-03-07T23:31:31.647Z,98583.94
2023-03-07T23:34:00.763Z,98586.22
2023-03-07T23:36:30.450Z,98583.22
2023-03-07T23:38:58.973Z,98582.03
2023-03-07T23:41:26.898Z,98597.88
2023-03-07T23:43:55.621Z,98595.78
2023-03-07T23:46:24.121Z,98590.03
2023-03-07T23:48:53.287Z,98592.66
2023-03-07T23:51:21.956Z,98596.31
2023-03-07T23:53:49.770Z,98607.63
2023-03-07T23:56:17.774Z,98606.22
2023-03-07T23:58:48.283Z,98598.34
